createdAt,value
2018-05-29T03:01:10.269Z,40.00
2018-05-29T03:02:10.869Z,44.00
2018-05-29T03:03:08.794Z,48.00
2018-05-29T03:04:08.882Z,56.00
2018-05-29T03:05:09.141Z,64.00
2018-05-29T03:06:09.200Z,72.00
2018-05-29T03:07:09.439Z,80.00
2018-05-29T03:08:09.491Z,88.00
2018-05-29T03:09:09.717Z,96.00
2018-05-29T03:10:10.072Z,108.00
2018-05-29T03:11:10.048Z,120.00
2018-05-29T03:12:10.357Z,128.00
2018-05-29T03:13:10.533Z,144.00
2018-05-29T03:14:10.636Z,156.00
2018-05-29T03:15:10.800Z,172.00
2018-05-29T03:16:11.022Z,184.00
2018-05-29T03:17:11.109Z,200.00
2018-05-29T03:18:11.340Z,216.00
2018-05-29T03:19:11.550Z,232.00
2018-05-29T03:20:11.742Z,248.00
2018-05-29T03:21:11.901Z,268.00
2018-05-29T03:22:12.150Z,288.00
2018-05-29T03:23:12.120Z,304.00
2018-05-29T03:24:12.477Z,324.00
2018-05-29T03:25:12.562Z,344.00
2018-05-29T03:26:12.753Z,368.00
2018-05-29T03:27:12.948Z,388.00
2018-05-29T03:28:13.267Z,408.00
2018-05-29T03:29:13.169Z,436.00
2018-05-29T03:30:13.459Z,460.00
2018-05-29T03:31:13.663Z,484.00
2018-05-29T03:32:13.970Z,504.00
2018-05-29T03:33:13.870Z,532.00
2018-05-29T03:34:14.276Z,556.00
2018-05-29T03:35:14.373Z,580.00
2018-05-29T03:36:14.647Z,608.00
2018-05-29T03:37:14.703Z,632.00
2018-05-29T03:38:14.796Z,660.00
2018-05-29T03:39:15.004Z,680.00
2018-05-29T03:40:15.069Z,712.00
2018-05-29T03:41:15.417Z,736.00
2018-05-29T03:42:15.451Z,760.00
2018-05-29T03:43:15.694Z,788.00
2018-05-29T03:44:15.917Z,816.00
2018-05-29T03:45:16.171Z,840.00
2018-05-29T03:46:16.161Z,868.00
2018-05-29T03:47:16.377Z,892.00
2018-05-29T03:48:16.652Z,928.00
2018-05-29T03:49:16.812Z,956.00
2018-05-29T03:50:16.896Z,988.00
2018-05-29T03:51:17.031Z,1020.00
2018-05-29T03:52:17.217Z,1052.00
2018-05-29T03:53:17.437Z,1084.00
2018-05-29T03:54:17.536Z,1112.00
2018-05-29T03:55:17.796Z,1144.00
2018-05-29T03:56:17.947Z,1176.00
2018-05-29T03:57:18.183Z,1208.00
2018-05-29T03:58:18.202Z,1236.00
2018-05-29T03:59:18.529Z,1272.00
2018-05-29T04:00:18.734Z,1308.00
2018-05-29T04:01:18.927Z,1344.00
2018-05-29T04:02:19.177Z,1380.00
2018-05-29T04:03:19.407Z,1412.00
2018-05-29T04:04:19.604Z,1440.00
2018-05-29T04:05:19.812Z,1468.00
2018-05-29T04:06:20.060Z,1496.00
2018-05-29T04:07:20.240Z,1520.00
2018-05-29T04:08:20.546Z,1544.00
2018-05-29T04:09:20.726Z,1568.00
2018-05-29T04:10:20.776Z,1596.00
2018-05-29T04:11:20.860Z,1620.00
2018-05-29T04:12:21.129Z,1648.00
2018-05-29T04:13:21.367Z,1676.00
2018-05-29T04:14:21.371Z,1700.00
2018-05-29T04:15:21.718Z,1720.00
2018-05-29T04:16:21.811Z,1748.00
2018-05-29T04:17:22.119Z,1772.00
2018-05-29T04:18:22.339Z,1800.00
2018-05-29T04:19:22.402Z,1824.00
2018-05-29T04:20:22.485Z,1844.00
2018-05-29T04:21:22.756Z,1868.00
2018-05-29T04:22:22.854Z,1892.00
2018-05-29T04:23:23.053Z,1916.00
2018-05-29T04:24:23.309Z,1944.00
2018-05-29T04:25:23.430Z,1972.00
2018-05-29T04:26:23.644Z,1992.00
2018-05-29T04:27:23.760Z,2016.00
2018-05-29T04:28:23.968Z,2040.00
2018-05-29T04:29:24.147Z,2064.00
2018-05-29T04:30:24.417Z,2088.00
2018-05-29T04:31:24.515Z,2108.00
2018-05-29T04:32:24.471Z,2132.00
2018-05-29T04:33:24.835Z,2156.00
2018-05-29T04:34:24.994Z,2172.00
2018-05-29T04:35:25.181Z,2192.00
2018-05-29T04:36:25.234Z,2208.00
2018-05-29T04:37:25.427Z,2228.00
2018-05-29T04:38:25.647Z,2240.00
2018-05-29T04:39:25.842Z,2260.00
2018-05-29T04:40:25.980Z,2284.00
2018-05-29T04:41:26.300Z,2304.00
2018-05-29T04:42:26.499Z,2328.00
2018-05-29T04:43:26.468Z,2348.00
2018-05-29T04:44:26.723Z,2364.00
2018-05-29T04:45:26.916Z,2384.00
2018-05-29T04:46:27.055Z,2404.00
2018-05-29T04:47:27.043Z,2428.00
2018-05-29T04:48:27.425Z,2448.00
2018-05-29T04:49:27.593Z,2476.00
2018-05-29T04:50:27.556Z,2492.00
2018-05-29T04:51:27.870Z,2512.00
2018-05-29T04:52:28.000Z,2528.00
2018-05-29T04:53:28.238Z,2548.00
2018-05-29T04:54:28.204Z,2560.00
2018-05-29T04:55:28.717Z,2584.00
2018-05-29T04:56:28.833Z,2604.00
2018-05-29T04:57:28.805Z,2624.00
2018-05-29T04:58:29.096Z,2648.00
2018-05-29T04:59:29.450Z,2668.00
2018-05-29T05:00:29.432Z,2692.00
2018-05-29T05:01:29.676Z,2716.00
2018-05-29T05:02:29.739Z,2740.00
2018-05-29T05:03:30.007Z,2772.00
2018-05-29T05:04:30.209Z,2800.00
2018-05-29T05:05:30.256Z,2824.00
2018-05-29T05:06:30.732Z,2848.00
2018-05-29T05:07:30.558Z,2868.00
2018-05-29T05:08:30.809Z,2884.00
2018-05-29T05:09:31.052Z,2908.00
2018-05-29T05:10:31.234Z,2932.00
2018-05-29T05:11:31.433Z,2956.00
2018-05-29T05:12:31.494Z,2996.00
2018-05-29T05:13:31.768Z,3036.00
2018-05-29T05:14:31.853Z,3076.00
2018-05-29T05:15:32.077Z,3108.00
2018-05-29T05:16:32.247Z,3132.00
2018-05-29T05:17:32.742Z,3144.00
2018-05-29T05:18:33.723Z,3160.00
2018-05-29T05:19:32.955Z,3184.00
2018-05-29T05:20:33.143Z,3224.00
2018-05-29T05:21:33.225Z,3268.00
2018-05-29T05:22:33.502Z,3312.00
2018-05-29T05:23:33.553Z,3352.00
2018-05-29T05:24:33.694Z,3384.00
2018-05-29T05:25:33.926Z,3412.00
2018-05-29T05:26:34.088Z,3424.00
2018-05-29T05:27:34.336Z,3436.00
2018-05-29T05:28:34.391Z,3444.00
2018-05-29T05:29:34.634Z,3444.00
2018-05-29T05:30:34.792Z,3456.00
2018-05-29T05:31:35.049Z,3484.00
2018-05-29T05:32:35.185Z,3512.00
2018-05-29T05:33:35.260Z,3536.00
2018-05-29T05:34:35.573Z,3544.00
2018-05-29T05:35:35.665Z,3552.00
2018-05-29T05:36:35.883Z,3556.00
2018-05-29T05:37:36.083Z,3568.00
2018-05-29T05:38:36.214Z,3576.00
2018-05-29T05:39:36.278Z,3596.00
2018-05-29T05:40:36.514Z,3612.00
2018-05-29T05:41:36.713Z,3632.00
2018-05-29T05:42:36.818Z,3660.00
2018-05-29T05:43:37.071Z,3672.00
2018-05-29T05:44:37.210Z,3684.00
2018-05-29T05:45:37.452Z,3700.00
2018-05-29T05:46:37.718Z,3708.00
2018-05-29T05:47:37.830Z,3748.00
2018-05-29T05:48:37.926Z,3768.00
2018-05-29T05:49:38.101Z,3760.00
2018-05-29T05:50:38.251Z,3752.00
2018-05-29T05:51:38.598Z,3764.00
2018-05-29T05:52:38.752Z,3788.00
2018-05-29T05:53:38.951Z,3808.00
2018-05-29T05:54:39.040Z,3824.00
2018-05-29T05:55:39.404Z,3840.00
2018-05-29T05:56:39.275Z,3860.00
2018-05-29T05:57:39.658Z,3880.00
2018-05-29T05:58:39.963Z,3908.00
2018-05-29T05:59:39.961Z,3944.00
2018-05-29T06:00:40.234Z,3972.00
2018-05-29T06:01:40.335Z,4000.00
2018-05-29T06:02:40.463Z,4024.00
2018-05-29T06:03:40.789Z,4044.00
2018-05-29T06:04:40.907Z,4064.00
2018-05-29T06:05:41.039Z,4084.00
2018-05-29T06:06:41.221Z,4104.00
2018-05-29T06:07:41.293Z,4120.00
2018-05-29T06:08:41.522Z,4160.00
2018-05-29T06:09:41.656Z,4180.00
2018-05-29T06:10:41.883Z,4196.00
2018-05-29T06:11:42.120Z,4212.00
2018-05-29T06:12:42.231Z,4224.00
2018-05-29T06:13:42.528Z,4244.00
2018-05-29T06:14:42.513Z,4260.00
2018-05-29T06:15:42.784Z,4276.00
2018-05-29T06:16:43.018Z,4308.00
2018-05-29T06:17:43.186Z,4332.00
2018-05-29T06:18:43.448Z,4344.00
2018-05-29T06:19:43.544Z,4360.00
2018-05-29T06:20:43.802Z,4372.00
2018-05-29T06:21:44.070Z,4364.00
2018-05-29T06:22:44.074Z,4388.00
2018-05-29T06:23:44.286Z,4416.00
2018-05-29T06:24:44.529Z,4440.00
2018-05-29T06:25:45.244Z,4480.00
2018-05-29T06:26:45.016Z,4520.00
2018-05-29T06:27:45.017Z,4548.00
2018-05-29T06:28:45.303Z,4592.00
2018-05-29T06:29:45.444Z,4624.00
2018-05-29T06:30:45.695Z,4652.00
2018-05-29T06:31:45.859Z,4668.00
2018-05-29T06:32:46.103Z,4692.00
2018-05-29T06:33:46.179Z,4708.00
2018-05-29T06:34:46.362Z,4728.00
2018-05-29T06:35:46.614Z,4752.00
2018-05-29T06:36:46.656Z,4760.00
2018-05-29T06:37:46.872Z,4796.00
2018-05-29T06:38:47.003Z,4844.00
2018-05-29T06:39:47.259Z,4900.00
2018-05-29T06:40:47.288Z,4920.00
2018-05-29T06:41:47.582Z,4936.00
2018-05-29T06:42:47.716Z,4968.00
2018-05-29T06:43:47.864Z,5012.00
2018-05-29T06:44:48.029Z,5044.00
2018-05-29T06:45:48.251Z,5076.00
2018-05-29T06:46:48.389Z,5108.00
2018-05-29T06:47:48.515Z,5128.00
2018-05-29T06:48:48.696Z,5140.00
2018-05-29T06:49:48.757Z,5176.00
2018-05-29T06:50:48.978Z,5224.00
2018-05-29T06:51:49.098Z,5264.00
2018-05-29T06:52:49.380Z,5296.00
2018-05-29T06:53:49.566Z,5324.00
2018-05-29T06:54:49.712Z,5340.00
2018-05-29T06:55:49.905Z,5372.00
2018-05-29T06:56:50.023Z,5404.00
2018-05-29T06:57:50.248Z,5444.00
2018-05-29T06:58:50.353Z,5488.00
2018-05-29T06:59:50.690Z,5532.00
2018-05-29T07:00:50.856Z,5556.00
2018-05-29T07:01:51.002Z,5572.00
2018-05-29T07:02:51.158Z,5588.00
2018-05-29T07:03:51.296Z,5600.00
2018-05-29T07:04:51.504Z,5616.00
2018-05-29T07:05:51.638Z,5656.00
2018-05-29T07:06:51.844Z,5712.00
2018-05-29T07:07:51.952Z,5740.00
2018-05-29T07:08:52.175Z,5768.00
2018-05-29T07:09:52.302Z,5792.00
2018-05-29T07:10:52.464Z,5808.00
2018-05-29T07:11:52.620Z,5844.00
2018-05-29T07:12:52.813Z,5892.00
2018-05-29T07:13:52.933Z,5944.00
2018-05-29T07:14:53.086Z,5972.00
2018-05-29T07:15:53.275Z,6008.00
2018-05-29T07:16:53.451Z,6036.00
2018-05-29T07:17:53.547Z,6076.00
2018-05-29T07:18:53.768Z,6072.00
2018-05-29T07:19:53.949Z,6080.00
2018-05-29T07:20:54.143Z,6124.00
2018-05-29T07:21:54.359Z,6144.00
2018-05-29T07:22:54.524Z,6168.00
2018-05-29T07:23:54.601Z,6184.00
2018-05-29T07:24:54.794Z,6212.00
2018-05-29T07:25:54.971Z,6240.00
2018-05-29T07:26:55.169Z,6284.00
2018-05-29T07:27:55.372Z,6300.00
2018-05-29T07:28:55.497Z,6336.00
2018-05-29T07:29:55.607Z,6364.00
2018-05-29T07:30:55.866Z,6400.00
2018-05-29T07:31:56.005Z,6448.00
2018-05-29T07:32:56.137Z,6468.00
2018-05-29T07:33:56.321Z,6496.00
2018-05-29T07:34:56.482Z,6532.00
2018-05-29T07:35:56.654Z,6544.00
2018-05-29T07:36:56.783Z,6548.00
2018-05-29T07:37:56.978Z,6564.00
2018-05-29T07:38:57.201Z,6588.00
2018-05-29T07:39:57.381Z,6616.00
2018-05-29T07:40:57.569Z,6660.00
2018-05-29T07:41:57.691Z,6704.00
2018-05-29T07:42:57.845Z,6752.00
2018-05-29T07:43:58.114Z,6784.00
2018-05-29T07:44:58.197Z,6840.00
2018-05-29T07:45:58.335Z,6856.00
2018-05-29T07:46:58.466Z,6884.00
2018-05-29T07:47:58.698Z,6916.00
2018-05-29T07:48:58.888Z,6948.00
2018-05-29T07:49:58.966Z,6980.00
2018-05-29T07:50:59.125Z,7024.00
2018-05-29T07:51:59.376Z,7072.00
2018-05-29T07:52:59.525Z,7128.00
2018-05-29T07:53:59.629Z,7144.00
2018-05-29T07:54:59.817Z,7172.00
2018-05-29T07:56:00.024Z,7228.00
2018-05-29T07:57:00.148Z,7260.00
2018-05-29T07:58:00.418Z,7276.00
2018-05-29T07:59:00.485Z,7304.00
2018-05-29T08:00:00.700Z,7320.00
2018-05-29T08:01:00.835Z,7320.00
2018-05-29T08:02:01.047Z,7340.00
2018-05-29T08:03:01.147Z,7368.00
2018-05-29T08:04:01.391Z,7396.00
2018-05-29T08:05:01.519Z,7440.00
2018-05-29T08:06:01.709Z,7524.00
2018-05-29T08:07:01.866Z,7528.00
2018-05-29T08:08:02.042Z,7556.00
2018-05-29T08:09:02.194Z,7624.00
2018-05-29T08:10:02.409Z,7720.00
2018-05-29T08:11:02.505Z,7828.00
2018-05-29T08:12:02.706Z,7976.00
2018-05-29T08:13:02.829Z,8148.00
2018-05-29T08:14:03.018Z,8256.00
2018-05-29T08:15:03.189Z,8332.00
2018-05-29T08:16:03.353Z,8388.00
2018-05-29T08:17:03.499Z,8480.00
2018-05-29T08:18:03.668Z,8600.00
2018-05-29T08:19:03.856Z,8676.00
2018-05-29T08:20:04.071Z,8712.00
2018-05-29T08:21:04.266Z,8756.00
2018-05-29T08:22:04.351Z,8828.00
2018-05-29T08:23:04.561Z,8892.00
2018-05-29T08:24:04.729Z,8936.00
2018-05-29T08:25:04.952Z,8988.00
2018-05-29T08:26:05.107Z,9064.00
2018-05-29T08:27:05.237Z,9060.00
2018-05-29T08:28:05.401Z,9044.00
2018-05-29T08:29:05.623Z,8848.00
2018-05-29T08:30:05.747Z,8700.00
2018-05-29T08:31:05.986Z,8672.00
2018-05-29T08:32:06.104Z,8648.00
2018-05-29T08:33:06.313Z,8580.00
2018-05-29T08:34:06.425Z,8516.00
2018-05-29T08:35:06.611Z,8508.00
2018-05-29T08:36:06.828Z,8524.00
2018-05-29T08:37:06.987Z,8556.00
2018-05-29T08:38:07.159Z,8592.00
2018-05-29T08:39:07.381Z,8660.00
2018-05-29T08:40:07.577Z,8700.00
2018-05-29T08:41:07.704Z,8740.00
2018-05-29T08:42:07.863Z,8760.00
2018-05-29T08:43:08.032Z,8796.00
2018-05-29T08:44:08.192Z,8840.00
2018-05-29T08:45:08.387Z,8888.00
2018-05-29T08:46:08.601Z,8968.00
2018-05-29T08:47:08.760Z,9044.00
2018-05-29T08:48:08.924Z,9128.00
2018-05-29T08:49:09.135Z,9156.00
2018-05-29T08:50:09.247Z,9212.00
2018-05-29T08:51:09.379Z,9276.00
2018-05-29T08:52:09.583Z,9300.00
2018-05-29T08:53:09.755Z,9348.00
2018-05-29T08:54:09.967Z,9380.00
2018-05-29T08:55:10.135Z,9440.00
2018-05-29T08:56:10.255Z,9488.00
2018-05-29T08:57:10.434Z,9524.00
2018-05-29T08:58:10.654Z,9544.00
2018-05-29T08:59:10.811Z,9560.00
2018-05-29T09:00:10.942Z,9560.00
2018-05-29T09:01:11.160Z,9588.00
2018-05-29T09:02:11.326Z,9620.00
2018-05-29T09:03:11.520Z,9680.00
2018-05-29T09:04:11.749Z,9728.00
2018-05-29T09:05:11.904Z,9796.00
2018-05-29T09:06:12.049Z,9880.00
2018-05-29T09:07:12.201Z,9972.00
2018-05-29T09:08:12.454Z,10036.00
2018-05-29T09:09:12.551Z,10132.00
2018-05-29T09:10:12.790Z,10148.00
2018-05-29T09:11:12.913Z,10180.00
2018-05-29T09:12:13.110Z,10216.00
2018-05-29T09:13:13.367Z,10264.00
2018-05-29T09:14:13.404Z,10348.00
2018-05-29T09:15:13.578Z,10404.00
2018-05-29T09:16:13.805Z,10460.00
2018-05-29T09:17:13.926Z,10544.00
2018-05-29T09:18:14.108Z,10636.00
2018-05-29T09:19:14.270Z,10764.00
2018-05-29T09:20:14.420Z,10872.00
2018-05-29T09:21:14.643Z,10904.00
2018-05-29T09:22:14.810Z,10916.00
2018-05-29T09:23:14.966Z,10864.00
2018-05-29T09:24:15.135Z,10896.00
2018-05-29T09:25:15.356Z,10964.00
2018-05-29T09:26:15.475Z,11044.00
2018-05-29T09:27:15.668Z,11136.00
2018-05-29T09:28:15.804Z,11188.00
2018-05-29T09:29:16.047Z,11208.00
2018-05-29T09:30:16.170Z,11268.00
2018-05-29T09:31:16.362Z,11340.00
2018-05-29T09:32:16.477Z,11392.00
2018-05-29T09:33:16.693Z,11428.00
2018-05-29T09:34:16.822Z,11436.00
2018-05-29T09:35:17.003Z,11480.00
2018-05-29T09:36:17.175Z,11540.00
2018-05-29T09:37:17.373Z,11596.00
2018-05-29T09:38:17.580Z,11636.00
2018-05-29T09:39:17.837Z,11764.00
2018-05-29T09:40:17.910Z,11912.00
2018-05-29T09:41:18.083Z,12028.00
2018-05-29T09:42:18.265Z,12100.00
2018-05-29T09:43:18.421Z,12152.00
2018-05-29T09:44:18.667Z,12224.00
2018-05-29T09:45:18.809Z,12368.00
2018-05-29T09:46:18.908Z,12532.00
2018-05-29T09:47:19.071Z,12716.00
2018-05-29T09:48:19.286Z,12784.00
2018-05-29T09:49:19.535Z,13000.00
2018-05-29T09:50:19.653Z,13112.00
2018-05-29T09:51:19.791Z,13328.00
2018-05-29T09:52:20.002Z,14260.00
2018-05-29T09:53:20.150Z,17568.00
2018-05-29T09:54:20.320Z,19744.00
2018-05-29T09:55:20.505Z,21280.00
2018-05-29T09:56:20.641Z,25536.00
2018-05-29T09:57:20.822Z,28448.00
2018-05-29T09:58:20.989Z,30176.00
2018-05-29T09:59:21.145Z,33408.00
2018-05-29T10:00:21.324Z,33568.00
2018-05-29T10:01:21.475Z,32352.00
2018-05-29T10:02:21.700Z,32896.00
2018-05-29T10:03:21.797Z,33376.00
2018-05-29T10:04:21.994Z,35424.00
2018-05-29T10:05:22.172Z,36320.00
2018-05-29T10:06:22.317Z,36128.00
2018-05-29T10:07:22.546Z,35040.00
2018-05-29T10:08:22.726Z,34720.00
2018-05-29T10:09:22.859Z,35840.00
2018-05-29T10:10:23.032Z,36544.00
2018-05-29T10:11:23.279Z,37184.00
2018-05-29T10:12:23.430Z,38304.00
2018-05-29T10:13:23.557Z,37856.00
2018-05-29T10:14:23.729Z,37312.00
2018-05-29T10:15:23.918Z,39456.00
2018-05-29T10:16:24.045Z,40448.00
2018-05-29T10:17:24.219Z,38976.00
2018-05-29T10:18:24.427Z,38048.00
2018-05-29T10:19:24.613Z,39360.00
2018-05-29T10:20:24.716Z,40800.00
2018-05-29T10:21:24.885Z,40992.00
2018-05-29T10:22:25.059Z,41056.00
2018-05-29T10:23:25.314Z,41056.00
2018-05-29T10:24:25.434Z,41632.00
2018-05-29T10:25:25.600Z,42720.00
2018-05-29T10:26:25.822Z,43616.00
2018-05-29T10:27:25.956Z,44128.00
2018-05-29T10:28:26.133Z,45056.00
2018-05-29T10:29:26.388Z,46496.00
2018-05-29T10:30:26.553Z,46400.00
2018-05-29T10:31:26.748Z,46176.00
2018-05-29T10:32:26.924Z,46496.00
2018-05-29T10:33:27.100Z,46880.00
2018-05-29T10:34:27.271Z,46816.00
2018-05-29T10:35:27.412Z,46944.00
2018-05-29T10:36:27.684Z,46816.00
2018-05-29T10:37:27.795Z,47872.00
2018-05-29T10:38:27.958Z,49184.00
2018-05-29T10:39:28.123Z,50496.00
2018-05-29T10:40:28.307Z,50944.00
2018-05-29T10:41:28.483Z,51200.00
2018-05-29T10:42:28.663Z,49728.00
2018-05-29T10:43:28.816Z,50400.00
2018-05-29T10:44:29.024Z,51520.00
2018-05-29T10:45:29.188Z,51392.00
2018-05-29T10:46:29.315Z,49920.00
2018-05-29T10:47:29.564Z,49504.00
2018-05-29T10:48:29.701Z,48512.00
2018-05-29T10:49:29.888Z,46368.00
2018-05-29T10:50:30.086Z,49120.00
2018-05-29T10:51:30.241Z,51136.00
2018-05-29T10:52:30.405Z,51392.00
2018-05-29T10:53:30.580Z,49952.00
2018-05-29T10:54:30.752Z,49856.00
2018-05-29T10:55:31.004Z,49888.00
2018-05-29T10:56:31.121Z,50880.00
2018-05-29T10:57:31.306Z,51520.00
2018-05-29T10:58:31.500Z,50592.00
2018-05-29T10:59:31.664Z,50592.00
2018-05-29T11:00:31.849Z,23616.00
2018-05-29T11:01:32.013Z,20768.00
2018-05-29T11:02:32.161Z,19936.00
2018-05-29T11:03:32.414Z,17344.00
2018-05-29T11:04:32.535Z,17280.00
2018-05-29T11:05:32.755Z,18208.00
2018-05-29T11:06:32.892Z,19232.00
2018-05-29T11:07:33.047Z,21184.00
2018-05-29T11:08:33.267Z,52352.00
2018-05-29T11:09:33.429Z,50752.00
2018-05-29T11:10:33.592Z,53824.00
2018-05-29T11:11:33.791Z,53280.00
2018-05-29T11:12:33.985Z,47232.00
2018-05-29T11:13:34.193Z,50912.00
2018-05-29T11:14:34.384Z,49696.00
2018-05-29T11:15:34.511Z,30880.00
2018-05-29T11:16:34.732Z,34752.00
2018-05-29T11:17:34.854Z,49472.00
2018-05-29T11:18:35.072Z,56704.00
2018-05-29T11:19:35.260Z,57024.00
2018-05-29T11:20:35.389Z,57888.00
2018-05-29T11:21:35.610Z,60608.00
2018-05-29T11:22:35.748Z,62528.00
2018-05-29T11:23:35.985Z,63040.00
2018-05-29T11:24:36.132Z,63328.00
2018-05-29T11:25:36.340Z,43392.00
2018-05-29T11:26:36.490Z,63136.00
2018-05-29T11:27:36.652Z,65408.00
2018-05-29T11:28:36.810Z,33984.00
2018-05-29T11:29:37.039Z,60672.00
2018-05-29T11:30:37.225Z,61696.00
2018-05-29T11:31:37.327Z,61664.00
2018-05-29T11:32:37.555Z,62624.00
2018-05-29T11:33:37.737Z,62624.00
2018-05-29T11:34:37.966Z,43360.00
2018-05-29T11:35:38.090Z,20032.00
2018-05-29T11:36:38.303Z,18624.00
2018-05-29T11:37:38.510Z,19136.00
2018-05-29T11:38:38.588Z,23136.00
2018-05-29T11:39:38.832Z,61056.00
2018-05-29T11:40:38.979Z,21184.00
2018-05-29T11:41:39.146Z,24448.00
2018-05-29T11:42:39.310Z,56160.00
2018-05-29T11:43:39.509Z,29632.00
2018-05-29T11:44:39.826Z,62784.00
2018-05-29T11:45:39.890Z,63168.00
2018-05-29T11:46:40.094Z,45472.00
2018-05-29T11:47:40.278Z,22336.00
2018-05-29T11:48:40.413Z,54752.00
2018-05-29T11:49:40.600Z,20544.00
2018-05-29T11:50:40.825Z,19520.00
2018-05-29T11:51:40.974Z,20064.00
2018-05-29T11:52:41.124Z,21984.00
2018-05-29T11:53:41.359Z,22048.00
2018-05-29T11:54:41.582Z,23776.00
2018-05-29T11:55:41.689Z,62656.00
2018-05-29T11:56:41.871Z,22400.00
2018-05-29T11:57:42.060Z,20384.00
2018-05-29T11:58:42.286Z,19136.00
2018-05-29T11:59:42.411Z,19456.00
2018-05-29T12:00:42.536Z,19712.00
2018-05-29T12:01:42.771Z,24672.00
2018-05-29T12:02:42.899Z,60128.00
2018-05-29T12:03:43.070Z,62432.00
2018-05-29T12:04:43.310Z,64096.00
2018-05-29T12:05:43.464Z,62592.00
2018-05-29T12:06:43.672Z,61120.00
2018-05-29T12:07:43.812Z,65120.00
2018-05-29T12:08:44.009Z,59232.00
2018-05-29T12:09:44.172Z,56160.00
2018-05-29T12:10:44.329Z,52480.00
2018-05-29T12:11:44.518Z,47200.00
2018-05-29T12:12:44.658Z,44896.00
2018-05-29T12:13:44.874Z,15040.00
2018-05-29T12:14:45.042Z,12528.00
2018-05-29T12:15:45.192Z,12504.00
2018-05-29T12:16:45.418Z,12356.00
2018-05-29T12:17:45.600Z,12304.00
2018-05-29T12:18:45.741Z,12660.00
2018-05-29T12:19:45.935Z,17024.00
2018-05-29T12:20:46.129Z,47744.00
2018-05-29T12:21:46.299Z,36448.00
2018-05-29T12:22:46.475Z,13184.00
2018-05-29T12:23:46.685Z,13592.00
2018-05-29T12:24:46.796Z,14724.00
2018-05-29T12:25:46.961Z,42688.00
2018-05-29T12:26:47.133Z,48928.00
2018-05-29T12:27:47.342Z,18112.00
2018-05-29T12:28:47.495Z,14588.00
2018-05-29T12:29:47.732Z,14540.00
2018-05-29T12:30:47.840Z,14992.00
2018-05-29T12:31:48.080Z,16064.00
2018-05-29T12:32:48.247Z,17248.00
2018-05-29T12:33:48.390Z,18144.00
2018-05-29T12:34:48.548Z,29344.00
2018-05-29T12:35:48.708Z,24736.00
2018-05-29T12:36:48.881Z,61536.00
2018-05-29T12:37:49.074Z,31872.00
2018-05-29T12:38:49.251Z,17504.00
2018-05-29T12:39:49.408Z,14792.00
2018-05-29T12:40:49.549Z,13560.00
2018-05-29T12:41:49.746Z,18368.00
2018-05-29T12:42:49.957Z,11012.00
2018-05-29T12:43:50.139Z,9888.00
2018-05-29T12:44:50.280Z,9140.00
2018-05-29T12:45:50.535Z,8716.00
2018-05-29T12:46:50.675Z,8268.00
2018-05-29T12:47:50.936Z,7900.00
2018-05-29T12:48:51.047Z,7392.00
2018-05-29T12:49:51.221Z,6832.00
2018-05-29T12:50:51.406Z,6412.00
2018-05-29T12:51:51.551Z,6096.00
2018-05-29T12:52:51.767Z,5784.00
2018-05-29T12:53:51.991Z,5520.00
2018-05-29T12:54:52.101Z,5172.00
2018-05-29T12:55:52.272Z,4688.00
2018-05-29T12:56:52.508Z,4100.00
2018-05-29T12:57:52.673Z,3444.00
2018-05-29T12:58:52.858Z,2804.00
2018-05-29T12:59:53.015Z,2336.00
2018-05-29T13:00:53.212Z,1996.00
2018-05-29T13:01:53.366Z,1716.00
2018-05-29T13:02:53.554Z,1440.00
2018-05-29T13:03:53.739Z,1172.00
2018-05-29T13:04:53.881Z,912.00
2018-05-29T13:05:54.016Z,748.00
2018-05-29T13:06:54.207Z,656.00
2018-05-29T13:07:54.355Z,628.00
2018-05-29T13:08:54.618Z,636.00
2018-05-29T13:09:54.757Z,708.00
2018-05-29T13:10:54.947Z,752.00
2018-05-29T13:11:55.046Z,784.00
2018-05-29T13:12:55.291Z,852.00
2018-05-29T13:13:55.465Z,868.00
2018-05-29T13:14:55.599Z,796.00
2018-05-29T13:15:55.807Z,740.00
2018-05-29T13:16:55.976Z,684.00
2018-05-29T13:17:56.190Z,588.00
2018-05-29T13:18:56.313Z,488.00
2018-05-29T13:19:56.410Z,448.00
2018-05-29T13:20:56.563Z,432.00
2018-05-29T13:21:56.893Z,448.00
2018-05-29T13:22:56.971Z,480.00
2018-05-29T13:23:57.188Z,544.00
2018-05-29T13:24:57.305Z,604.00
2018-05-29T13:25:57.453Z,652.00
2018-05-29T13:26:57.726Z,696.00
2018-05-29T13:27:57.852Z,728.00
2018-05-29T13:28:58.006Z,776.00
2018-05-29T13:29:58.155Z,828.00
2018-05-29T13:30:58.327Z,892.00
2018-05-29T13:31:58.554Z,940.00
2018-05-29T13:32:58.602Z,980.00
2018-05-29T13:33:58.791Z,1008.00
2018-05-29T13:34:58.976Z,1016.00
2018-05-29T13:35:59.187Z,1040.00
2018-05-29T13:36:59.288Z,1076.00
2018-05-29T13:37:59.574Z,1148.00
2018-05-29T13:38:59.675Z,1236.00
2018-05-29T13:39:59.853Z,1288.00
2018-05-29T13:41:00.061Z,1352.00
2018-05-29T13:42:00.212Z,1428.00
2018-05-29T13:43:00.393Z,1528.00
2018-05-29T13:44:00.528Z,1568.00
2018-05-29T13:45:00.697Z,1568.00
2018-05-29T13:46:00.884Z,1616.00
2018-05-29T13:47:00.991Z,1632.00
2018-05-29T13:48:01.167Z,1616.00
2018-05-29T13:49:01.303Z,1580.00
2018-05-29T13:50:01.504Z,1568.00
2018-05-29T13:51:01.657Z,1528.00
2018-05-29T13:52:01.903Z,1468.00
2018-05-29T13:53:02.003Z,1440.00
2018-05-29T13:54:02.205Z,1456.00
2018-05-29T13:55:02.392Z,1496.00
2018-05-29T13:56:02.631Z,1536.00
2018-05-29T13:57:02.824Z,1556.00
2018-05-29T13:58:02.863Z,1580.00
2018-05-29T13:59:03.078Z,1612.00
2018-05-29T14:00:03.234Z,1652.00
2018-05-29T14:01:03.395Z,1716.00
2018-05-29T14:02:03.573Z,1780.00
2018-05-29T14:03:03.836Z,1832.00
2018-05-29T14:04:03.932Z,1876.00
2018-05-29T14:05:04.049Z,1912.00
2018-05-29T14:06:04.269Z,1948.00
2018-05-29T14:07:04.458Z,1984.00
2018-05-29T14:08:04.608Z,2036.00
2018-05-29T14:09:04.839Z,2088.00
2018-05-29T14:10:04.887Z,2152.00
2018-05-29T14:11:05.118Z,2208.00
2018-05-29T14:12:05.309Z,2260.00
2018-05-29T14:13:05.490Z,2316.00
2018-05-29T14:14:05.620Z,2356.00
2018-05-29T14:15:05.784Z,2392.00
2018-05-29T14:16:05.963Z,2420.00
2018-05-29T14:17:06.100Z,2448.00
2018-05-29T14:18:06.315Z,2464.00
2018-05-29T14:19:06.451Z,2484.00
2018-05-29T14:20:06.593Z,2516.00
2018-05-29T14:21:06.806Z,2548.00
2018-05-29T14:22:06.890Z,2592.00
2018-05-29T14:23:07.155Z,2648.00
2018-05-29T14:24:07.320Z,2700.00
2018-05-29T14:25:07.447Z,2776.00
2018-05-29T14:26:07.572Z,2856.00
2018-05-29T14:27:07.773Z,2948.00
2018-05-29T14:28:07.927Z,3036.00
2018-05-29T14:29:08.191Z,3120.00
2018-05-29T14:30:08.318Z,3196.00
2018-05-29T14:31:08.438Z,3264.00
2018-05-29T14:32:08.711Z,3324.00
2018-05-29T14:33:08.871Z,3384.00
2018-05-29T14:34:08.990Z,3440.00
2018-05-29T14:35:09.115Z,3500.00
2018-05-29T14:36:09.272Z,3556.00
2018-05-29T14:37:09.554Z,3608.00
2018-05-29T14:38:09.713Z,3660.00
2018-05-29T14:39:09.874Z,3704.00
2018-05-29T14:40:09.989Z,3740.00
2018-05-29T14:41:10.142Z,3772.00
2018-05-29T14:42:10.418Z,3800.00
2018-05-29T14:43:10.608Z,3824.00
2018-05-29T14:44:10.766Z,3848.00
2018-05-29T14:45:10.900Z,3876.00
2018-05-29T14:46:11.083Z,3908.00
2018-05-29T14:47:11.237Z,3944.00
2018-05-29T14:48:11.360Z,3980.00
2018-05-29T14:49:11.547Z,4024.00
2018-05-29T14:50:11.720Z,4072.00
2018-05-29T14:51:11.865Z,4120.00
2018-05-29T14:52:12.074Z,4168.00
2018-05-29T14:53:12.214Z,4224.00
2018-05-29T14:54:12.336Z,4268.00
2018-05-29T14:55:12.533Z,4312.00
2018-05-29T14:56:12.749Z,4360.00
2018-05-29T14:57:12.881Z,4408.00
2018-05-29T14:58:13.051Z,4460.00
2018-05-29T14:59:13.285Z,4504.00
2018-05-29T15:00:13.459Z,4544.00
2018-05-29T15:01:13.674Z,4576.00
2018-05-29T15:02:13.800Z,4604.00
2018-05-29T15:03:13.960Z,4636.00
2018-05-29T15:04:14.137Z,4664.00